This is the latest recevied weather packets stored in our database for station/object KC9EGS. If no packets are shown the sender has not sent any weather packets the latest 10 day(s).
| Time | Temp. | Humidity | Pressure | Rain* | Wind** | Luminosity | Snow |
|---|---|---|---|---|---|---|---|
| 1777832119 | 19.44° C | 38% | 997.6 hPa | 0 mm | - | - | - |
| 1777831812 | 19.44° C | 35% | 997.7 hPa | 0 mm | - | - | - |
| 1777831521 | 19.44° C | 36% | 997.7 hPa | 0 mm | - | - | - |
| 1777830913 | 18.89° C | 40% | 998 hPa | 0 mm | - | - | - |
| 1777830318 | 18.33° C | 37% | 998 hPa | 0 mm | - | - | - |
| 1777830013 | 18.33° C | 39% | 997.8 hPa | 0 mm | - | - | - |
| 1777829719 | 18.89° C | 37% | 997.8 hPa | 0 mm | - | - | - |
| 1777829114 | 18.33° C | 40% | 998.3 hPa | 0 mm | - | - | - |
| 1777828517 | 18.33° C | 38% | 998.3 hPa | 0 mm | - | - | - |
| 1777828213 | 17.78° C | 39% | 998.3 hPa | 0 mm | - | - | - |
| 1777827314 | 17.22° C | 40% | 998.5 hPa | 0 mm | - | - | - |
| 1777826413 | 17.22° C | 43% | 998.8 hPa | 0 mm | - | - | - |
| 1777826118 | 16.67° C | 41% | 998.8 hPa | 0 mm | - | - | - |
| 1777825512 | 16.67° C | 39% | 998.9 hPa | 0 mm | - | - | - |
| 1777824919 | 16.67° C | 40% | 998.9 hPa | 0 mm | - | - | - |
| 1777824614 | 16.67° C | 41% | 998.9 hPa | 0 mm | - | - | - |
| 1777824317 | 16.67° C | 44% | 998.9 hPa | 0 mm | - | - | - |
| 1777823712 | 16.67° C | 42% | 999 hPa | 0 mm | - | - | - |
| 1777823117 | 16.67° C | 43% | 999 hPa | 0 mm | - | - | - |
| 1777822813 | 16.67° C | 42% | 999.1 hPa | 0 mm | - | - | - |
| 1777822518 | 16.67° C | 43% | 999.1 hPa | 0 mm | - | - | - |
| 1777821914 | 16.11° C | 46% | 999.3 hPa | 0 mm | - | - | - |
| 1777821013 | 15.56° C | 47% | 999.6 hPa | 0 mm | - | - | - |
| 1777820720 | 15.56° C | 47% | 999.6 hPa | 0 mm | - | - | - |
| 1777820112 | 15° C | 49% | 999.8 hPa | 0 mm | - | - | - |
* Rain latest hour (hover to see other rain measurements)
** Current wind speed in m/s (hover to see current wind gust speed)